Time;durP1;ratioP1;P1;durP2;ratioP2;P2;SDS_P1;SDS_P2;PMS_P1;PMS_P2;Temp;Humidity;BMP_temperature;BMP_pressure;BME280_temperature;BME280_humidity;BME280_pressure;Samples;Min_cycle;Max_cycle;Signal;HPM_P1;HPM_P2
2023/07/20 00:02:15;;;;;;;14.60;5.40;;;;;;;22.64;56.92;100113.41;5039193;28;20444;-77
2023/07/20 00:04:40;;;;;;;11.23;4.95;;;;;;;22.63;57.35;100108.97;5039360;28;20037;-77
2023/07/20 00:07:06;;;;;;;18.13;5.63;;;;;;;22.60;57.26;100106.47;5049497;28;20086;-77
2023/07/20 00:09:31;;;;;;;12.60;4.93;;;;;;;22.56;57.26;100109.41;5046905;28;20132;-77
2023/07/20 00:11:57;;;;;;;14.07;5.60;;;;;;;22.54;57.64;100109.50;5057072;28;20033;-77
2023/07/20 00:14:23;;;;;;;12.70;4.90;;;;;;;22.48;57.80;100104.47;5038827;28;20037;-77
2023/07/20 00:16:55;;;;;;;12.40;5.03;;;;;;;22.47;57.71;100110.78;5046363;28;20026;-77
2023/07/20 00:19:22;;;;;;;11.35;4.57;;;;;;;22.45;57.82;100110.00;5038641;28;20367;-77
2023/07/20 00:21:48;;;;;;;16.67;5.30;;;;;;;22.42;57.89;100110.16;5038670;28;20098;-77
2023/07/20 00:24:13;;;;;;;12.57;4.93;;;;;;;22.43;57.97;100109.22;5043121;28;20509;-77
2023/07/20 00:26:38;;;;;;;13.83;4.60;;;;;;;22.45;57.87;100112.66;5038776;28;20033;-77
2023/07/20 00:29:04;;;;;;;12.27;4.73;;;;;;;22.46;57.89;100106.34;5039097;28;20555;-77
2023/07/20 00:31:29;;;;;;;14.80;5.20;;;;;;;22.45;58.00;100110.00;5038600;28;20339;-77
2023/07/20 00:33:54;;;;;;;10.33;4.83;;;;;;;22.41;58.28;100100.38;5037119;28;20029;-77
2023/07/20 00:36:20;;;;;;;15.10;5.00;;;;;;;22.40;58.03;100095.97;5038596;28;20033;-75
2023/07/20 00:38:45;;;;;;;13.40;4.60;;;;;;;22.40;58.12;100093.28;5038358;28;20031;-75
2023/07/20 00:41:11;;;;;;;12.73;5.07;;;;;;;22.39;58.24;100091.56;5052909;28;20516;-75
2023/07/20 00:43:36;;;;;;;14.70;4.83;;;;;;;22.40;58.18;100093.28;5039194;28;20264;-75
2023/07/20 00:46:02;;;;;;;14.33;5.10;;;;;;;22.39;57.94;100092.41;5057815;28;20036;-75
2023/07/20 00:48:29;;;;;;;14.25;5.28;;;;;;;22.34;58.26;100087.31;5056859;28;20062;-75
2023/07/20 00:50:55;;;;;;;14.60;5.10;;;;;;;22.24;58.49;100083.41;5058238;28;20029;-75
2023/07/20 00:53:21;;;;;;;13.93;5.10;;;;;;;22.19;58.58;100081.00;5056493;28;20028;-77
2023/07/20 00:55:47;;;;;;;13.77;5.18;;;;;;;22.16;58.63;100077.63;5038256;28;20057;-77
2023/07/20 00:58:12;;;;;;;12.77;5.15;;;;;;;22.09;58.85;100085.13;5047813;28;20455;-77
2023/07/20 01:00:38;;;;;;;12.00;5.17;;;;;;;22.03;59.11;100080.97;5038120;28;20051;-76
2023/07/20 01:03:03;;;;;;;14.53;5.13;;;;;;;21.99;59.15;100073.19;5036807;28;20022;-77
2023/07/20 01:06:02;;;;;;;12.07;5.17;;;;;;;21.90;59.93;100077.25;5038102;28;20072;-77
2023/07/20 01:08:36;;;;;;;16.05;5.00;;;;;;;21.86;59.55;100075.69;5039781;28;20032;-77
2023/07/20 01:11:19;;;;;;;11.13;5.10;;;;;;;21.82;59.81;100074.97;5059823;28;20036;-77
2023/07/20 01:13:45;;;;;;;13.35;5.00;;;;;;;21.78;59.96;100070.75;5037820;28;20021;-77
2023/07/20 01:16:11;;;;;;;11.23;5.20;;;;;;;21.74;59.86;100070.03;5044860;28;20032;-77
2023/07/20 01:18:38;;;;;;;11.80;4.70;;;;;;;21.76;59.92;100072.63;5037549;28;20045;-77
2023/07/20 01:21:09;;;;;;;11.75;4.53;;;;;;;21.80;59.66;100069.69;5037686;28;20053;-77
2023/07/20 01:24:22;;;;;;;14.40;5.00;;;;;;;21.83;59.99;100065.13;5040662;28;20045;-77
2023/07/20 01:27:11;;;;;;;16.75;5.25;;;;;;;21.80;60.22;100064.31;5031522;28;20563;-77
2023/07/20 01:30:13;;;;;;;13.10;4.57;;;;;;;21.78;59.98;100062.69;5037970;28;20541;-77
2023/07/20 01:32:42;;;;;;;16.90;5.28;;;;;;;21.71;60.23;100059.47;5044176;28;20548;-77
2023/07/20 01:35:10;;;;;;;11.55;4.47;;;;;;;21.63;60.50;100059.84;5057308;28;20021;-77
2023/07/20 01:37:38;;;;;;;15.77;4.80;;;;;;;21.61;60.44;100063.56;5057036;28;20485;-77
2023/07/20 01:40:03;;;;;;;12.63;5.32;;;;;;;21.62;60.43;100054.59;5060853;28;20025;-77
2023/07/20 01:42:29;;;;;;;13.15;4.93;;;;;;;21.64;60.63;100053.56;5053248;28;20031;-77
2023/07/20 01:44:55;;;;;;;14.40;5.30;;;;;;;21.65;60.39;100049.09;5056354;28;20029;-77
2023/07/20 01:47:20;;;;;;;14.53;5.63;;;;;;;21.65;60.50;100049.09;5037224;28;20200;-77
2023/07/20 01:49:46;;;;;;;12.80;5.27;;;;;;;21.65;60.50;100044.59;5037092;28;20080;-77
2023/07/20 01:52:11;;;;;;;11.97;5.50;;;;;;;21.65;60.53;100043.72;5036935;28;20021;-77
2023/07/20 01:54:36;;;;;;;15.23;5.17;;;;;;;21.60;60.47;100045.78;5037150;28;20288;-77
2023/07/20 01:57:02;;;;;;;12.83;5.20;;;;;;;21.52;60.82;100033.63;5053656;28;20569;-77
2023/07/20 01:59:28;;;;;;;12.63;5.13;;;;;;;21.46;60.96;100039.31;5043523;28;20025;-77
2023/07/20 02:01:53;;;;;;;14.73;5.43;;;;;;;21.39;60.99;100040.59;5036769;28;20035;-77
2023/07/20 02:04:19;;;;;;;12.37;5.20;;;;;;;21.34;61.42;100031.94;5035629;28;20017;-77
2023/07/20 02:06:44;;;;;;;12.65;4.85;;;;;;;21.35;61.40;100033.69;5044415;28;20027;-77
2023/07/20 02:09:10;;;;;;;12.53;5.27;;;;;;;21.31;61.44;100029.41;5048408;28;20035;-77
2023/07/20 02:11:35;;;;;;;10.47;4.87;;;;;;;21.26;61.49;100031.47;5055179;28;20064;-77
2023/07/20 02:14:00;;;;;;;13.80;4.90;;;;;;;21.25;61.51;100029.75;5036648;28;20124;-77
2023/07/20 02:16:26;;;;;;;13.52;5.30;;;;;;;21.24;61.36;100028.91;5042988;28;20032;-77
2023/07/20 02:18:52;;;;;;;13.50;5.20;;;;;;;21.21;61.60;100024.56;5037513;28;20033;-77
2023/07/20 02:21:18;;;;;;;11.40;5.03;;;;;;;21.16;61.70;100023.94;5036758;28;20060;-77
2023/07/20 02:23:43;;;;;;;13.70;5.40;;;;;;;21.11;61.96;100028.66;5040820;28;20040;-77
2023/07/20 02:26:08;;;;;;;13.20;5.40;;;;;;;21.07;61.79;100021.72;5036822;28;20026;-77
2023/07/20 02:28:34;;;;;;;11.90;4.80;;;;;;;21.04;61.99;100021.88;5037139;28;20055;-77
2023/07/20 02:31:00;;;;;;;12.27;5.10;;;;;;;20.99;62.05;100027.50;5036790;28;20025;-77
2023/07/20 02:33:26;;;;;;;12.88;5.47;;;;;;;20.96;62.63;100026.78;5037882;28;20042;-77
2023/07/20 02:35:51;;;;;;;13.93;5.93;;;;;;;20.91;62.53;100025.22;5040813;28;20025;-77
2023/07/20 02:38:17;;;;;;;13.60;5.27;;;;;;;20.89;62.77;100019.06;5052767;28;20017;-77
2023/07/20 02:40:42;;;;;;;14.73;5.63;;;;;;;20.83;62.57;100019.34;5057791;28;20025;-77
2023/07/20 02:43:09;;;;;;;13.43;5.53;;;;;;;20.80;62.91;100014.16;5040692;28;20025;-77
2023/07/20 02:45:35;;;;;;;15.25;5.32;;;;;;;20.79;62.71;100010.66;5049921;28;20021;-77
2023/07/20 02:48:00;;;;;;;13.67;5.20;;;;;;;20.81;62.76;100020.41;5039171;28;20030;-77
2023/07/20 02:50:26;;;;;;;14.73;4.93;;;;;;;20.83;62.69;100016.69;5040344;28;20023;-77
2023/07/20 02:52:51;;;;;;;12.70;5.77;;;;;;;20.88;62.56;100009.31;5040271;28;20061;-77
2023/07/20 02:55:17;;;;;;;14.10;5.00;;;;;;;20.91;62.39;100016.28;5046527;28;20052;-77
2023/07/20 02:57:42;;;;;;;13.03;5.17;;;;;;;20.91;62.73;100001.13;5056751;28;20099;-77
2023/07/20 03:00:08;;;;;;;12.88;5.60;;;;;;;20.89;62.38;100004.81;5040892;28;20036;-77
2023/07/20 03:02:33;;;;;;;11.23;4.97;;;;;;;20.80;62.94;100008.81;5040483;28;20030;-77
2023/07/20 03:05:00;;;;;;;12.50;5.10;;;;;;;20.72;62.97;100001.13;5039999;28;20021;-77
2023/07/20 03:07:28;;;;;;;11.43;5.27;;;;;;;20.65;63.19;100008.63;5053086;28;20263;-77
2023/07/20 03:09:54;;;;;;;13.43;5.25;;;;;;;20.57;63.53;100008.13;5051540;28;20029;-77
2023/07/20 03:12:20;;;;;;;13.25;6.00;;;;;;;20.50;63.49;100002.25;5052930;28;20120;-77
2023/07/20 03:14:46;;;;;;;13.68;5.07;;;;;;;20.45;63.84;100003.41;5040610;28;20056;-77
2023/07/20 03:17:11;;;;;;;11.73;5.40;;;;;;;20.44;64.05;100001.69;5046024;28;20032;-77
2023/07/20 03:19:36;;;;;;;13.53;5.70;;;;;;;20.38;64.02;100002.84;5038650;28;20115;-77
2023/07/20 03:22:02;;;;;;;13.33;5.43;;;;;;;20.36;64.23;99997.56;5039764;28;20025;-77
2023/07/20 03:24:27;;;;;;;14.02;5.50;;;;;;;20.37;63.88;99993.94;5043917;28;20021;-77
2023/07/20 03:26:53;;;;;;;12.07;5.47;;;;;;;20.34;64.01;99995.91;5039945;28;20037;-77
2023/07/20 03:29:18;;;;;;;14.40;5.63;;;;;;;20.31;64.09;99988.91;5038386;28;20426;-77
2023/07/20 03:31:44;;;;;;;11.07;5.40;;;;;;;20.28;64.26;99989.06;5039625;28;20025;-77
2023/07/20 03:34:09;;;;;;;14.53;5.40;;;;;;;20.23;64.40;99989.28;5048898;28;20033;-76
2023/07/20 03:36:35;;;;;;;13.23;5.47;;;;;;;20.20;64.33;99980.56;5058491;28;20093;-77
2023/07/20 03:39:00;;;;;;;12.60;5.03;;;;;;;20.18;64.31;99979.75;5061333;28;20025;-77
2023/07/20 03:41:25;;;;;;;12.47;5.70;;;;;;;20.13;64.47;99981.78;5049842;28;20444;-77
2023/07/20 03:43:51;;;;;;;12.00;4.90;;;;;;;20.06;64.81;99982.06;5042102;28;20596;-77
2023/07/20 03:46:16;;;;;;;11.63;4.90;;;;;;;20.03;64.59;99982.22;5046128;28;20063;-77
2023/07/20 03:48:42;;;;;;;14.27;5.40;;;;;;;20.00;65.14;99979.72;5039427;28;20081;-77
2023/07/20 03:51:07;;;;;;;12.73;5.75;;;;;;;20.00;64.86;99982.38;5038046;28;20030;-77
2023/07/20 03:53:33;;;;;;;13.63;5.40;;;;;;;19.98;65.21;99986.06;5037567;28;20021;-77
2023/07/20 03:55:58;;;;;;;13.03;5.50;;;;;;;19.92;65.52;99985.41;5050808;28;20053;-77
2023/07/20 03:58:23;;;;;;;11.80;4.80;;;;;;;19.88;65.57;99980.25;5049525;28;20025;-77
2023/07/20 04:00:51;;;;;;;10.75;4.97;;;;;;;19.84;65.49;99981.34;5039206;28;20450;-77
2023/07/20 04:03:17;;;;;;;12.20;5.40;;;;;;;19.82;65.79;99984.09;5039234;28;20056;-77
2023/07/20 04:05:44;;;;;;;14.02;5.70;;;;;;;19.82;65.53;99984.09;5038050;28;20017;-77
2023/07/20 04:08:11;;;;;;;11.43;5.15;;;;;;;19.83;65.65;99985.81;5057705;28;20025;-77
2023/07/20 04:10:37;;;;;;;14.13;4.90;;;;;;;19.82;65.73;99980.53;5055214;28;20017;-77
2023/07/20 04:13:03;;;;;;;12.48;5.25;;;;;;;19.75;65.73;99983.50;5040497;28;20036;-77
2023/07/20 04:15:29;;;;;;;11.83;5.07;;;;;;;19.71;66.08;99979.25;5045409;28;20024;-77
2023/07/20 04:17:56;;;;;;;15.40;5.50;;;;;;;19.71;65.65;99978.38;5039443;28;20079;-77
2023/07/20 04:20:22;;;;;;;10.45;4.80;;;;;;;19.71;65.77;99973.91;5039018;28;20478;-77
2023/07/20 04:22:47;;;;;;;12.00;4.83;;;;;;;19.70;66.18;99979.31;5038501;28;20060;-77
2023/07/20 04:25:13;;;;;;;11.20;5.03;;;;;;;19.68;66.14;99971.38;5041960;28;20021;-77
2023/07/20 04:27:38;;;;;;;9.37;5.13;;;;;;;19.68;65.99;99966.06;5038983;28;20053;-77
2023/07/20 04:30:06;;;;;;;11.57;5.07;;;;;;;19.67;66.00;99964.31;5043620;28;20132;-77
2023/07/20 04:32:33;;;;;;;11.35;5.22;;;;;;;19.65;65.97;99961.69;5058452;28;20526;-77
2023/07/20 04:34:59;;;;;;;11.18;4.85;;;;;;;19.63;66.36;99957.34;5058698;28;20036;-77
2023/07/20 04:37:24;;;;;;;15.47;5.30;;;;;;;19.61;66.26;99961.91;5058288;28;20029;-77
2023/07/20 04:39:49;;;;;;;12.93;4.77;;;;;;;19.60;66.24;99960.19;5061675;28;20052;-77
2023/07/20 04:42:15;;;;;;;11.73;5.17;;;;;;;19.64;66.08;99961.75;5039621;28;20505;-77
2023/07/20 04:44:41;;;;;;;14.45;4.85;;;;;;;19.65;65.80;99964.38;5048446;28;20431;-77
2023/07/20 04:47:06;;;;;;;10.90;4.97;;;;;;;19.65;65.80;99956.38;5039419;28;20033;-76
2023/07/20 04:49:32;;;;;;;11.13;4.30;;;;;;;19.64;65.54;99949.28;5038469;28;20382;-77
2023/07/20 04:51:57;;;;;;;12.10;5.00;;;;;;;19.68;65.86;99960.72;5038105;28;20083;-77
2023/07/20 04:54:22;;;;;;;13.43;5.33;;;;;;;19.71;65.74;99954.34;5038166;28;20021;-77
2023/07/20 04:56:48;;;;;;;11.10;4.70;;;;;;;19.76;66.00;99952.31;5052875;28;20045;-77
2023/07/20 04:59:13;;;;;;;10.50;4.73;;;;;;;19.79;65.65;99952.19;5046597;28;20063;-77
2023/07/20 05:01:39;;;;;;;9.80;4.27;;;;;;;19.79;65.46;99958.38;5037986;28;20275;-77
2023/07/20 05:04:05;;;;;;;11.40;4.88;;;;;;;19.82;65.54;99960.06;5036768;28;20014;-77
2023/07/20 05:06:30;;;;;;;12.83;4.97;;;;;;;19.82;65.73;99960.06;5042125;28;20096;-77
2023/07/20 05:08:55;;;;;;;10.63;4.73;;;;;;;19.85;65.80;99953.66;5051710;28;20009;-77
2023/07/20 05:11:21;;;;;;;14.83;5.07;;;;;;;19.89;65.25;99949.91;5055886;28;20036;-77
2023/07/20 05:13:46;;;;;;;9.57;5.00;;;;;;;20.01;65.04;99941.34;5037807;28;20100;-77
2023/07/20 05:16:11;;;;;;;13.17;4.53;;;;;;;20.19;64.47;99936.91;5044878;28;20029;-77
2023/07/20 05:18:37;;;;;;;11.50;4.90;;;;;;;20.35;64.08;99938.81;5037585;28;20057;-77
2023/07/20 05:21:02;;;;;;;13.00;4.70;;;;;;;20.49;64.07;99938.13;5037814;28;20026;-77
2023/07/20 05:23:28;;;;;;;12.03;4.87;;;;;;;20.59;63.36;99941.19;5039930;28;20478;-77
2023/07/20 05:25:57;;;;;;;14.13;4.60;;;;;;;20.74;63.28;99931.50;5042029;28;20025;-77
2023/07/20 05:28:23;;;;;;;15.68;5.13;;;;;;;20.82;62.73;99931.16;5057651;28;20076;-77
2023/07/20 05:30:53;;;;;;;14.25;4.90;;;;;;;20.90;62.62;99932.47;5051645;28;20021;-77
2023/07/20 05:33:19;;;;;;;11.38;4.72;;;;;;;21.01;62.39;99941.75;5037420;28;20083;-77
2023/07/20 05:35:44;;;;;;;13.18;4.40;;;;;;;21.04;62.49;99936.22;5037625;28;20448;-77
2023/07/20 05:38:10;;;;;;;12.47;4.77;;;;;;;21.08;62.38;99941.34;5037210;28;20123;-77
2023/07/20 05:40:40;;;;;;;12.87;4.90;;;;;;;21.19;62.15;99940.75;5051587;28;20021;-77
2023/07/20 05:43:06;;;;;;;11.07;4.30;;;;;;;21.33;61.50;99939.13;5037459;28;20413;-77
2023/07/20 05:45:31;;;;;;;11.57;4.30;;;;;;;21.41;61.62;99939.59;5046535;28;20035;-77
2023/07/20 05:47:57;;;;;;;11.00;4.37;;;;;;;21.52;61.29;99926.47;5036701;28;20033;-77
2023/07/20 05:50:22;;;;;;;10.48;4.40;;;;;;;21.68;60.77;99930.13;5037355;28;20374;-77
2023/07/20 05:52:47;;;;;;;9.27;4.00;;;;;;;21.82;60.73;99927.56;5037128;28;20099;-77
2023/07/20 05:55:13;;;;;;;13.67;4.77;;;;;;;21.90;60.34;99932.50;5043486;28;20057;-77
2023/07/20 05:57:41;;;;;;;9.07;4.55;;;;;;;21.93;60.60;99929.63;5052509;28;20029;-77
2023/07/20 06:00:07;;;;;;;12.30;6.33;;;;;;;21.94;60.27;99926.88;5035754;28;20034;-77
2023/07/20 06:02:33;;;;;;;17.55;6.20;;;;;;;21.89;60.49;99931.59;5036967;28;20025;-77
2023/07/20 06:04:58;;;;;;;11.60;4.80;;;;;;;21.89;60.38;99933.44;5035753;28;20082;-77
2023/07/20 06:07:24;;;;;;;13.48;5.22;;;;;;;22.01;60.53;99919.31;5049093;28;20104;-78
2023/07/20 06:09:49;;;;;;;19.40;9.17;;;;;;;22.08;60.29;99922.50;5046197;28;20091;-79
2023/07/20 06:12:15;;;;;;;20.23;11.27;;;;;;;22.11;60.30;99918.81;5052093;28;20040;-79
2023/07/20 06:14:40;;;;;;;20.50;12.75;;;;;;;22.18;60.17;99922.84;5036971;28;20127;-79
2023/07/20 06:17:06;;;;;;;14.70;6.47;;;;;;;22.25;60.07;99926.03;5042822;28;20121;-79
2023/07/20 06:19:31;;;;;;;12.77;4.93;;;;;;;22.33;59.82;99916.59;5036713;28;20033;-79
2023/07/20 06:21:56;;;;;;;9.87;4.20;;;;;;;22.42;59.52;99917.84;5037705;28;20030;-79
2023/07/20 06:24:22;;;;;;;10.20;4.40;;;;;;;22.52;59.41;99920.88;5051228;28;20025;-79
2023/07/20 06:26:47;;;;;;;14.57;5.60;;;;;;;22.60;59.53;99918.63;5037072;28;20363;-79
2023/07/20 06:29:13;;;;;;;14.33;7.70;;;;;;;22.64;59.34;99924.66;5037134;28;20375;-79
2023/07/20 06:31:38;;;;;;;13.07;5.43;;;;;;;22.72;59.17;99924.19;5036751;28;20021;-78
2023/07/20 06:34:04;;;;;;;13.13;4.40;;;;;;;22.85;58.99;99924.31;5035222;28;20030;-79
2023/07/20 06:36:29;;;;;;;12.97;4.53;;;;;;;23.02;58.56;99918.78;5037563;28;20358;-79
2023/07/20 06:38:58;;;;;;;8.30;3.17;;;;;;;23.10;58.51;99931.72;5039213;28;20056;-80
2023/07/20 06:41:23;;;;;;;11.38;4.85;;;;;;;23.22;57.99;99920.22;5046561;28;20112;-80
2023/07/20 06:43:49;;;;;;;11.33;4.70;;;;;;;23.26;58.04;99915.53;5040112;28;20120;-81
2023/07/20 06:46:14;;;;;;;10.60;4.20;;;;;;;23.21;58.13;99918.47;5044754;28;20505;-80
2023/07/20 06:48:40;;;;;;;11.13;4.60;;;;;;;23.31;58.25;99917.94;5036171;28;20040;-80
2023/07/20 06:51:05;;;;;;;9.03;3.00;;;;;;;23.41;57.75;99919.09;5036496;28;20029;-80
2023/07/20 06:53:31;;;;;;;10.50;3.40;;;;;;;23.44;57.72;99913.50;5036148;28;20312;-80
2023/07/20 06:55:57;;;;;;;10.63;2.92;;;;;;;23.61;57.15;99916.94;5047996;28;20075;-80
2023/07/20 06:58:25;;;;;;;8.83;3.40;;;;;;;23.69;56.87;99909.25;5047954;28;21150;-80
2023/07/20 07:00:51;;;;;;;9.32;2.97;;;;;;;23.71;56.88;99915.38;5034937;28;20059;-80
2023/07/20 07:03:17;;;;;;;7.93;3.13;;;;;;;23.87;56.79;99909.00;5036412;28;20028;-80
2023/07/20 07:05:44;;;;;;;8.80;3.20;;;;;;;24.04;56.43;99900.72;5036726;28;20025;-80
2023/07/20 07:08:09;;;;;;;7.82;3.20;;;;;;;24.24;56.10;99895.84;5048440;28;20036;-81
2023/07/20 07:10:35;;;;;;;9.93;3.00;;;;;;;24.51;55.66;99900.31;5059598;28;20028;-80
2023/07/20 07:13:01;;;;;;;7.03;3.20;;;;;;;24.77;55.14;99897.69;5037045;28;20080;-80
2023/07/20 07:15:27;;;;;;;10.13;3.63;;;;;;;24.96;54.89;99893.69;5040981;28;20021;-80
2023/07/20 07:17:52;;;;;;;8.33;3.57;;;;;;;25.11;53.95;99897.97;5037082;28;20025;-81
2023/07/20 07:20:18;;;;;;;7.03;3.28;;;;;;;25.05;54.23;99893.88;5056466;28;20037;-80
2023/07/20 07:22:43;;;;;;;7.97;3.00;;;;;;;25.11;53.86;99894.44;5059683;28;20606;-81
2023/07/20 07:25:09;;;;;;;10.43;3.20;;;;;;;25.21;53.80;99896.38;5047321;28;20429;-81
2023/07/20 07:27:35;;;;;;;9.63;3.50;;;;;;;25.23;53.64;99886.34;5039881;28;20574;-80
2023/07/20 07:30:01;;;;;;;10.57;3.10;;;;;;;25.23;53.55;99893.56;5051784;28;20037;-81
2023/07/20 07:32:26;;;;;;;8.10;3.20;;;;;;;25.28;54.11;99890.53;5040615;28;20108;-81
2023/07/20 07:34:51;;;;;;;8.83;3.27;;;;;;;25.43;53.52;99894.81;5039991;28;20022;-81
2023/07/20 07:37:19;;;;;;;7.60;2.60;;;;;;;25.63;52.83;99890.69;5039515;28;20029;-81
2023/07/20 07:39:44;;;;;;;7.17;2.43;;;;;;;25.69;52.27;99893.91;5052633;28;20266;-81
2023/07/20 07:42:11;;;;;;;8.35;2.50;;;;;;;25.78;51.98;99893.22;5040136;28;20494;-80
2023/07/20 07:44:36;;;;;;;9.80;2.90;;;;;;;26.05;51.71;99890.31;5048964;28;20036;-79
2023/07/20 07:47:01;;;;;;;6.55;2.60;;;;;;;26.36;51.51;99888.00;5039995;28;20037;-79
2023/07/20 07:49:27;;;;;;;7.83;3.00;;;;;;;26.57;50.91;99884.63;5039647;28;20040;-79
2023/07/20 07:51:53;;;;;;;6.90;3.10;;;;;;;26.62;50.94;99877.00;5039212;28;20037;-79
2023/07/20 07:54:18;;;;;;;6.93;2.30;;;;;;;26.67;50.46;99883.94;5039362;28;20112;-79
2023/07/20 07:56:44;;;;;;;7.93;2.30;;;;;;;26.84;49.90;99877.19;5053845;28;20052;-79
2023/07/20 07:59:10;;;;;;;7.70;2.55;;;;;;;27.06;49.83;99869.13;5046005;28;20497;-79
2023/07/20 08:01:35;;;;;;;9.60;3.00;;;;;;;27.19;49.67;99879.81;5038961;28;20052;-80
2023/07/20 08:04:00;;;;;;;10.33;2.77;;;;;;;27.21;49.01;99876.97;5039224;28;20048;-79
2023/07/20 08:06:26;;;;;;;8.60;2.60;;;;;;;27.17;49.14;99870.97;5043913;28;20047;-79
2023/07/20 08:08:51;;;;;;;7.32;2.95;;;;;;;27.19;48.63;99868.13;5053462;28;20041;-79
2023/07/20 08:11:18;;;;;;;9.27;2.97;;;;;;;27.25;49.12;99861.38;5057397;28;20497;-79
2023/07/20 08:13:43;;;;;;;7.32;2.67;;;;;;;27.45;48.57;99863.31;5039086;28;20029;-77
2023/07/20 08:16:08;;;;;;;7.10;2.67;;;;;;;27.62;48.39;99864.66;5049819;28;20406;-78
2023/07/20 08:18:34;;;;;;;7.73;2.30;;;;;;;27.82;48.26;99855.88;5038871;28;20509;-79
2023/07/20 08:20:59;;;;;;;7.10;2.40;;;;;;;28.01;48.04;99850.63;5039007;28;20085;-80
2023/07/20 08:23:25;;;;;;;6.07;2.80;;;;;;;28.24;47.47;99855.97;5040649;28;20260;-79
2023/07/20 08:25:51;;;;;;;7.50;2.60;;;;;;;28.36;46.89;99846.81;5041334;28;20482;-79
2023/07/20 08:28:16;;;;;;;7.13;2.47;;;;;;;28.37;46.92;99855.78;5039048;28;20033;-79
2023/07/20 08:30:46;;;;;;;6.97;2.67;;;;;;;28.36;46.81;99854.94;5038292;28;20022;-79
2023/07/20 08:33:20;;;;;;;6.93;2.55;;;;;;;28.40;46.37;99852.81;5038671;28;20029;-79
2023/07/20 08:35:46;;;;;;;5.75;2.15;;;;;;;28.42;46.44;99856.25;5038788;28;20029;-79
2023/07/20 08:38:12;;;;;;;5.90;2.50;;;;;;;28.58;46.54;99855.81;5038466;28;20040;-79
2023/07/20 08:40:43;;;;;;;6.43;2.35;;;;;;;28.55;46.24;99857.91;5052867;28;20374;-79
2023/07/20 08:43:11;;;;;;;4.85;2.10;;;;;;;28.57;46.25;99845.94;5038715;28;20116;-79
2023/07/20 08:45:39;;;;;;;5.78;2.20;;;;;;;28.73;46.12;99858.16;5049296;28;20032;-79
2023/07/20 08:48:05;;;;;;;8.97;2.13;;;;;;;28.88;45.96;99861.38;5037045;28;20029;-79
2023/07/20 08:50:31;;;;;;;7.50;2.20;;;;;;;29.05;45.46;99854.47;5038532;28;20389;-79
2023/07/20 08:52:59;;;;;;;5.05;2.00;;;;;;;29.18;44.59;99844.25;5038466;28;20029;-79
2023/07/20 08:55:26;;;;;;;9.25;2.35;;;;;;;29.26;44.64;99848.13;5043560;28;20033;-78
2023/07/20 08:57:56;;;;;;;6.77;2.40;;;;;;;29.33;44.32;99843.88;5054157;28;20401;-79
2023/07/20 09:00:22;;;;;;;7.45;2.20;;;;;;;29.32;43.81;99839.47;5038238;28;20025;-79
2023/07/20 09:02:54;;;;;;;8.15;2.20;;;;;;;29.29;43.86;99834.28;5038083;28;20029;-79
2023/07/20 09:05:20;;;;;;;8.02;1.95;;;;;;;29.32;43.68;99834.03;5038284;28;20025;-79
2023/07/20 09:07:46;;;;;;;6.43;2.30;;;;;;;29.43;43.56;99831.22;5053576;28;20413;-79
2023/07/20 09:10:12;;;;;;;7.87;2.20;;;;;;;29.49;43.62;99827.94;5050463;28;20024;-79
2023/07/20 09:12:42;;;;;;;6.30;1.90;;;;;;;29.60;43.68;99823.41;5060402;28;20039;-78
2023/07/20 09:15:08;;;;;;;5.90;1.80;;;;;;;29.76;43.15;99818.25;5056483;28;20017;-79
2023/07/20 09:17:34;;;;;;;7.63;2.20;;;;;;;29.83;42.66;99815.84;5041682;28;20017;-79
2023/07/20 09:20:07;;;;;;;6.10;2.17;;;;;;;29.60;42.76;99813.41;5037834;28;20076;-79
2023/07/20 09:22:32;;;;;;;6.97;2.25;;;;;;;29.54;43.30;99813.09;5037431;28;20096;-78
2023/07/20 09:24:58;;;;;;;6.30;2.10;;;;;;;29.69;43.19;99811.69;5041293;28;20064;-78
2023/07/20 09:27:41;;;;;;;8.55;1.92;;;;;;;29.86;42.43;99801.97;5036386;28;20025;-79
2023/07/20 09:30:08;;;;;;;5.10;1.80;;;;;;;30.11;42.30;99804.31;5038058;28;20033;-78
2023/07/20 09:32:44;;;;;;;7.18;1.52;;;;;;;30.10;42.11;99799.88;5037837;28;20056;-79
2023/07/20 09:35:14;;;;;;;8.77;1.83;;;;;;;29.93;41.40;99810.41;5037467;28;20037;-79
2023/07/20 09:37:41;;;;;;;6.30;1.63;;;;;;;29.66;41.56;99793.00;5037540;28;20036;-78
2023/07/20 09:40:09;;;;;;;8.75;1.83;;;;;;;29.48;41.56;99795.56;5052469;28;20036;-78
2023/07/20 09:42:35;;;;;;;6.13;1.60;;;;;;;29.63;41.53;99788.69;5036048;28;20021;-78
2023/07/20 09:45:00;;;;;;;6.75;1.80;;;;;;;29.96;41.57;99791.13;5048655;28;20023;-78
2023/07/20 09:47:27;;;;;;;5.80;1.45;;;;;;;30.31;40.47;99789.69;5037609;28;20108;-78
2023/07/20 09:50:03;;;;;;;8.70;1.67;;;;;;;30.55;38.63;99787.47;5037260;28;20391;-80
2023/07/20 09:52:29;;;;;;;4.68;1.55;;;;;;;30.78;39.11;99775.25;5037286;28;20440;-80
2023/07/20 09:54:55;;;;;;;6.03;1.83;;;;;;;31.00;39.12;99777.75;5039762;28;20041;-80
2023/07/20 09:57:21;;;;;;;6.32;1.75;;;;;;;31.13;39.57;99778.22;5053764;28;20191;-80
2023/07/20 09:59:46;;;;;;;7.53;1.67;;;;;;;30.97;39.02;99778.91;5041324;28;20065;-80
2023/07/20 10:02:28;;;;;;;6.53;1.60;;;;;;;30.73;38.93;99779.41;5037035;28;20057;-80
2023/07/20 10:04:55;;;;;;;6.07;2.10;;;;;;;30.77;39.40;99778.16;5037031;28;20260;-81
2023/07/20 10:07:24;;;;;;;7.07;2.28;;;;;;;30.99;38.97;99773.28;5048956;28;20032;-78
2023/07/20 10:09:52;;;;;;;5.45;1.80;;;;;;;31.28;38.96;99775.03;5045111;28;20045;-78
2023/07/20 10:12:21;;;;;;;7.13;2.05;;;;;;;31.45;38.26;99766.00;5051005;28;20021;-78
2023/07/20 10:15:00;;;;;;;6.57;2.03;;;;;;;31.47;37.70;99757.72;5037792;28;20041;-78
2023/07/20 10:17:26;;;;;;;6.30;2.20;;;;;;;31.41;37.44;99756.47;5041664;28;20485;-78
2023/07/20 10:19:56;;;;;;;3.95;1.85;;;;;;;31.24;37.16;99752.72;5036887;28;20026;-78
2023/07/20 10:22:26;;;;;;;5.22;1.77;;;;;;;31.26;38.12;99760.72;5036591;28;20072;-78
2023/07/20 10:24:53;;;;;;;4.65;1.60;;;;;;;31.45;38.02;99752.41;5039952;28;20057;-78
2023/07/20 10:27:20;;;;;;;5.60;1.80;;;;;;;31.68;37.08;99737.50;5036808;28;20404;-78
2023/07/20 10:29:47;;;;;;;5.40;1.90;;;;;;;31.82;37.29;99738.84;5037366;28;20026;-78
2023/07/20 10:32:13;;;;;;;4.88;1.77;;;;;;;32.03;37.48;99742.06;5036584;28;20033;-78
2023/07/20 10:34:39;;;;;;;5.07;1.85;;;;;;;32.22;37.35;99745.59;5036723;28;20029;-78
2023/07/20 10:37:04;;;;;;;5.47;1.80;;;;;;;32.27;36.80;99742.38;5039506;28;20028;-78
2023/07/20 10:39:33;;;;;;;5.28;1.70;;;;;;;32.05;36.81;99740.03;5057705;28;20503;-79
2023/07/20 10:42:08;;;;;;;7.97;2.08;;;;;;;31.88;36.88;99732.75;5039784;28;20040;-79
2023/07/20 10:44:33;;;;;;;6.78;1.90;;;;;;;31.94;37.25;99732.09;5045795;28;20025;-78
2023/07/20 10:47:08;;;;;;;7.47;1.90;;;;;;;32.10;37.01;99730.53;5038346;28;20834;-79
2023/07/20 10:49:35;;;;;;;6.15;1.80;;;;;;;32.01;36.92;99730.47;5037141;28;20036;-79
2023/07/20 10:52:04;;;;;;;5.35;2.10;;;;;;;32.12;36.94;99725.75;5035214;28;20055;-78
2023/07/20 10:54:32;;;;;;;5.60;1.70;;;;;;;32.34;36.65;99727.97;5038074;28;20065;-78
2023/07/20 10:57:21;;;;;;;6.40;2.08;;;;;;;32.15;36.24;99730.88;5056589;28;20124;-79
2023/07/20 10:59:47;;;;;;;6.60;2.15;;;;;;;32.14;36.40;99721.88;5044273;28;20037;-78
2023/07/20 11:02:12;;;;;;;6.63;2.13;;;;;;;32.00;36.23;99727.91;5039145;28;20025;-79
2023/07/20 11:04:39;;;;;;;5.53;1.83;;;;;;;32.03;36.57;99727.56;5053093;28;20028;-78
2023/07/20 11:07:06;;;;;;;5.80;1.90;;;;;;;32.07;35.73;99721.66;5058950;28;20330;-79
2023/07/20 11:09:39;;;;;;;5.15;1.77;;;;;;;32.13;36.10;99713.84;5049398;28;20034;-78
2023/07/20 11:12:13;;;;;;;7.50;2.00;;;;;;;32.19;36.07;99710.47;5040134;28;20456;-78
2023/07/20 11:14:56;;;;;;;5.75;1.73;;;;;;;32.32;35.55;99700.03;5040079;28;20032;-79
2023/07/20 11:17:32;;;;;;;4.72;1.63;;;;;;;32.45;35.66;99699.59;5039707;28;20095;-79
2023/07/20 11:20:00;;;;;;;5.07;1.77;;;;;;;32.60;35.09;99702.56;5040231;28;20037;-79
2023/07/20 11:22:26;;;;;;;6.22;2.00;;;;;;;32.65;35.41;99697.47;5039709;28;20025;-79
2023/07/20 11:24:55;;;;;;;5.03;1.80;;;;;;;32.57;35.26;99692.00;5044541;28;20040;-79
2023/07/20 11:27:22;;;;;;;6.32;1.88;;;;;;;32.63;35.17;99687.75;5040002;28;20033;-79